Brisbane International Airport
YBBN : now visible

Airfield :











YOU CAN JOIN US ON...

 
LOGIN :

Register | Disclaimer

   EN    FR    IT 

 









Legend :    VFR   Marginal VFR   IFR   Intensive IFR   Very Intensive IFR
Visi :
Ceiling :
>= 8 km
>= 3000ft
5 to 8 km
1000 to 3000 ft
1500m to 5 km
500 to 1000 ft
800 to 1500m
200 to 500 ft
< 800m
< 200 ft
Symbols :   Thunderstorms  Fog  Heavy snow  Heavy precipitations  Wind > 20 kt







- Airport Elevation : 13 ft
- IATA code : BNE


YBBN - Brisbane International

CURRENT METAR :
  • 180800Z 35005KT 310V010 CAVOK 15/12 Q1016 NOSIG

EXPIRED METARs :
  • 180730Z 01002KT CAVOK 16/11 Q1016
  • 180700Z 36003KT CAVOK 17/11 Q1015 NOSIG
  • 180630Z 03005KT CAVOK 20/09 Q1015 FM0800 23005KT CAVOK
  • 180600Z 03005KT CAVOK 22/05 Q1015
  • 180530Z 22006KT CAVOK 22/05 Q1015 NOSIG

TAF TAF YBBN
Valid from the 18 at 06:00 until the 19 at 12:00 UTC


180503Z 1806/1912 23005KT CAVOK
FM181200 26007KT 9999 FEW040
FM190000 21010KT CAVOK
FM190400 15007KT CAVOK
YBBB FIR / Oceania



MET'MAP, your aeronautical weather chart ! - Copyright ORBIFLY December 2007 - Disclaimer

ORBIFLY MET'MAP TEAM :

Programming & Development : Alexandra Zaïnal
Concept & Development : Baudouin d'Aumeries
Co-Development & Prog : Marc-Olivier Méhu
Technical & hardware support : Manuel Goepfert

Contact : metmap@orbifly.com




SOURCES & CREDITS :

   NOAA       Earth
Advisory